Uni-arise — 3FSV7 — position and weather

sailwx.info

Track history (hours):
 
Tides and Currents Weather Stations Pressure Air Temp Water Temp Dewpoint Dewpoint Depression Visibility Wind Speed Wind Dir Waves Ship Positions

Uni-arise

Last reported at 2017-Jun-23 21:13 UTC. Time now 2017-Jun-24 05:20 UTC.
Position N 22°33' E 120°20'.

Length 165 m; draft 8.1 m.

Type: Ship (hazmat cat D). MMSI: 351608000.

Date/timePositionNaut miles runAvg speedWind from/ knotsBaromVisibWave heightAir tempDewpointWater temp
2017-Jun-23 21:13N 22°33' E 120°20'1 5.1
2017-Jun-23 21:00N 22°33' E 120°19'4 7.3
2017-Jun-23 20:30N 22°32' E 120°15'3 6.2
2017-Jun-23 20:00N 22°30' E 120°12'4 7.1
2017-Jun-23 19:30N 22°27' E 120°10'0 0.4
2017-Jun-23 19:00N 22°27' E 120°10'0 0.5
2017-Jun-23 18:30N 22°28' E 120°10'0 0.4
2017-Jun-23 18:00N 22°28' E 120°10'0 0.5
2017-Jun-23 17:30N 22°28' E 120°10'0 0.6
2017-Jun-23 17:00N 22°28' E 120°09'0 0.4
2017-Jun-23 16:30N 22°28' E 120°09'0 0.3
2017-Jun-23 16:00N 22°28' E 120°09'0 0.3
2017-Jun-23 15:30N 22°28' E 120°09'0 0.2
2017-Jun-23 14:42N 22°28' E 120°09'0 0.1
2017-Jun-23 14:26N 22°28' E 120°09'0 0.2
2017-Jun-23 13:30N 22°28' E 120°09'0 0.1
2017-Jun-23 13:00N 22°28' E 120°09'1 1.6
2017-Jun-23 12:30N 22°27' E 120°08'713.4
2017-Jun-23 12:00N 22°29' E 120°02'327 9.6
2017-Jun-22 01:55N 22°20' E 114°08'  
2017-Jun-15 11:36N 33°40' E 134°43'316.7
2017-Jun-15 11:26N 33°42' E 134°45'1016.4
2017-Jun-15 10:49N 33°51' E 134°51'615.9
2017-Jun-15 10:26N 33°56' E 134°53'715.4
2017-Jun-15 10:01N 34°03' E 134°55'714.0
2017-Jun-15 09:31N 34°10' E 134°57'713.7
2017-Jun-15 09:01N 34°16' E 134°59'815.1
2017-Jun-15 08:31N 34°24' E 135°01'816.7
2017-Jun-15 08:01N 34°30' E 135°08'814.8
2017-Jun-15 07:30N 34°36' E 135°14'4 8.3
2017-Jun-15 07:00N 34°40' E 135°15'1 1.0
2017-Jun-15 06:19N 34°40' E 135°14'0 0.2
2017-Jun-15 06:00N 34°40' E 135°14'0 0.1
2017-Jun-15 05:30N 34°40' E 135°14'0 0.1
2017-Jun-15 05:00N 34°40' E 135°14'0 0.0
2017-Jun-15 04:30N 34°40' E 135°14'0 0.0
2017-Jun-15 04:00N 34°40' E 135°14'0 0.0
2017-Jun-15 03:30N 34°40' E 135°14'0 0.8
2017-Jun-15 02:59N 34°40' E 135°14'0 0.0
2017-Jun-15 02:30N 34°40' E 135°14'0 0.0
2017-Jun-15 02:00N 34°40' E 135°14'0 0.0
2017-Jun-15 01:30N 34°40' E 135°14'0 0.0
2017-Jun-15 01:00N 34°40' E 135°14'0 0.0
2017-Jun-15 00:30N 34°40' E 135°14'0 0.0
2017-Jun-15 00:00N 34°40' E 135°14'0 0.0
2017-Jun-14 23:30N 34°40' E 135°14'0 0.0
2017-Jun-14 23:00N 34°40' E 135°14'0 0.0
2017-Jun-14 22:30N 34°40' E 135°14'2 3.1
2017-Jun-14 22:00N 34°39' E 135°16'510.0
2017-Jun-14 21:30N 34°39' E 135°22'2 2.9
2017-Jun-14 20:47N 34°39' E 135°24'0 0.0
2017-Jun-14 20:30N 34°39' E 135°24'0 0.0
2017-Jun-14 19:53N 34°39' E 135°24'0 0.0
2017-Jun-14 19:30N 34°39' E 135°24'0 0.0
2017-Jun-14 18:53N 34°39' E 135°24'0 0.0
2017-Jun-14 18:29N 34°39' E 135°24'0 0.0
2017-Jun-14 18:00N 34°39' E 135°24'0 0.0
2017-Jun-14 17:17N 34°39' E 135°24'0 0.0
2017-Jun-14 17:00N 34°39' E 135°24'0 0.0
2017-Jun-14 16:30N 34°39' E 135°24'0 0.0
2017-Jun-14 16:00N 34°39' E 135°24'0 0.0
2017-Jun-14 15:23N 34°39' E 135°24'0 0.0
2017-Jun-14 15:00N 34°39' E 135°24'0 0.0
2017-Jun-14 13:48N 34°39' E 135°24'0 0.0
2017-Jun-14 13:30N 34°39' E 135°24'0 0.0
2017-Jun-14 12:53N 34°39' E 135°24'0 0.0
2017-Jun-14 12:30N 34°39' E 135°24'0 0.0
2017-Jun-14 11:54N 34°39' E 135°24'0 0.0
2017-Jun-14 11:30N 34°39' E 135°24'0 0.0
2017-Jun-14 10:59N 34°39' E 135°24'0 0.0
2017-Jun-14 10:23N 34°39' E 135°24'0 0.0
2017-Jun-14 09:59N 34°39' E 135°24'0 0.0
2017-Jun-14 09:29N 34°39' E 135°24'0 0.0
2017-Jun-14 08:59N 34°39' E 135°24'0 0.0
2017-Jun-14 08:23N 34°39' E 135°24'0 0.0
2017-Jun-14 07:53N 34°39' E 135°24'0 0.0
2017-Jun-14 07:30N 34°39' E 135°24'0 0.0
2017-Jun-14 06:54N 34°39' E 135°24'0 0.8
2017-Jun-14 06:30N 34°39' E 135°24'5 9.0
2017-Jun-14 05:59N 34°36' E 135°20'714.2
2017-Jun-14 05:30N 34°31' E 135°14'815.3
2017-Jun-14 05:00N 34°26' E 135°07'1015.6
2017-Jun-14 04:22N 34°18' E 134°60'514.2
2017-Jun-14 04:00N 34°13' E 134°59'610.9
2017-Jun-14 03:30N 34°07' E 134°59'612.1
2017-Jun-14 03:00N 34°01' E 134°59'  
Track history (hours):
 
Tides and Currents Weather Stations Pressure Air Temp Water Temp Dewpoint Dewpoint Depression Visibility Wind Speed Wind Dir Waves Ship Positions

Uni-arise

Last reported at 2017-Jun-23 21:13 UTC. Time now 2017-Jun-24 05:20 UTC.
Position N 22°33' E 120°20'.

Length 165 m; draft 8.1 m.

Type: Ship (hazmat cat D). MMSI: 351608000.

Date/timePositionNaut miles runAvg speedWind from/ knotsBaromVisibWave heightAir tempDewpointWater temp
2017-Jun-23 21:13N 22°33' E 120°20'1 5.1
2017-Jun-23 21:00N 22°33' E 120°19'4 7.3
2017-Jun-23 20:30N 22°32' E 120°15'3 6.2
2017-Jun-23 20:00N 22°30' E 120°12'4 7.1
2017-Jun-23 19:30N 22°27' E 120°10'0 0.4
2017-Jun-23 19:00N 22°27' E 120°10'0 0.5
2017-Jun-23 18:30N 22°28' E 120°10'0 0.4
2017-Jun-23 18:00N 22°28' E 120°10'0 0.5
2017-Jun-23 17:30N 22°28' E 120°10'0 0.6
2017-Jun-23 17:00N 22°28' E 120°09'0 0.4
2017-Jun-23 16:30N 22°28' E 120°09'0 0.3
2017-Jun-23 16:00N 22°28' E 120°09'0 0.3
2017-Jun-23 15:30N 22°28' E 120°09'0 0.2
2017-Jun-23 14:42N 22°28' E 120°09'0 0.1
2017-Jun-23 14:26N 22°28' E 120°09'0 0.2
2017-Jun-23 13:30N 22°28' E 120°09'0 0.1
2017-Jun-23 13:00N 22°28' E 120°09'1 1.6
2017-Jun-23 12:30N 22°27' E 120°08'713.4
2017-Jun-23 12:00N 22°29' E 120°02'327 9.6
2017-Jun-22 01:55N 22°20' E 114°08'  
2017-Jun-15 11:36N 33°40' E 134°43'316.7
2017-Jun-15 11:26N 33°42' E 134°45'1016.4
2017-Jun-15 10:49N 33°51' E 134°51'615.9
2017-Jun-15 10:26N 33°56' E 134°53'715.4
2017-Jun-15 10:01N 34°03' E 134°55'714.0
2017-Jun-15 09:31N 34°10' E 134°57'713.7
2017-Jun-15 09:01N 34°16' E 134°59'815.1
2017-Jun-15 08:31N 34°24' E 135°01'816.7
2017-Jun-15 08:01N 34°30' E 135°08'814.8
2017-Jun-15 07:30N 34°36' E 135°14'4 8.3
2017-Jun-15 07:00N 34°40' E 135°15'1 1.0
2017-Jun-15 06:19N 34°40' E 135°14'0 0.2
2017-Jun-15 06:00N 34°40' E 135°14'0 0.1
2017-Jun-15 05:30N 34°40' E 135°14'0 0.1
2017-Jun-15 05:00N 34°40' E 135°14'0 0.0
2017-Jun-15 04:30N 34°40' E 135°14'0 0.0
2017-Jun-15 04:00N 34°40' E 135°14'0 0.0
2017-Jun-15 03:30N 34°40' E 135°14'0 0.8
2017-Jun-15 02:59N 34°40' E 135°14'0 0.0
2017-Jun-15 02:30N 34°40' E 135°14'0 0.0
2017-Jun-15 02:00N 34°40' E 135°14'0 0.0
2017-Jun-15 01:30N 34°40' E 135°14'0 0.0
2017-Jun-15 01:00N 34°40' E 135°14'0 0.0
2017-Jun-15 00:30N 34°40' E 135°14'0 0.0
2017-Jun-15 00:00N 34°40' E 135°14'0 0.0
2017-Jun-14 23:30N 34°40' E 135°14'0 0.0
2017-Jun-14 23:00N 34°40' E 135°14'0 0.0
2017-Jun-14 22:30N 34°40' E 135°14'2 3.1
2017-Jun-14 22:00N 34°39' E 135°16'510.0
2017-Jun-14 21:30N 34°39' E 135°22'2 2.9
2017-Jun-14 20:47N 34°39' E 135°24'0 0.0
2017-Jun-14 20:30N 34°39' E 135°24'0 0.0
2017-Jun-14 19:53N 34°39' E 135°24'0 0.0
2017-Jun-14 19:30N 34°39' E 135°24'0 0.0
2017-Jun-14 18:53N 34°39' E 135°24'0 0.0
2017-Jun-14 18:29N 34°39' E 135°24'0 0.0
2017-Jun-14 18:00N 34°39' E 135°24'0 0.0
2017-Jun-14 17:17N 34°39' E 135°24'0 0.0
2017-Jun-14 17:00N 34°39' E 135°24'0 0.0
2017-Jun-14 16:30N 34°39' E 135°24'0 0.0
2017-Jun-14 16:00N 34°39' E 135°24'0 0.0
2017-Jun-14 15:23N 34°39' E 135°24'0 0.0
2017-Jun-14 15:00N 34°39' E 135°24'0 0.0
2017-Jun-14 13:48N 34°39' E 135°24'0 0.0
2017-Jun-14 13:30N 34°39' E 135°24'0 0.0
2017-Jun-14 12:53N 34°39' E 135°24'0 0.0
2017-Jun-14 12:30N 34°39' E 135°24'0 0.0
2017-Jun-14 11:54N 34°39' E 135°24'0 0.0
2017-Jun-14 11:30N 34°39' E 135°24'0 0.0
2017-Jun-14 10:59N 34°39' E 135°24'0 0.0
2017-Jun-14 10:23N 34°39' E 135°24'0 0.0
2017-Jun-14 09:59N 34°39' E 135°24'0 0.0
2017-Jun-14 09:29N 34°39' E 135°24'0 0.0
2017-Jun-14 08:59N 34°39' E 135°24'0 0.0
2017-Jun-14 08:23N 34°39' E 135°24'0 0.0
2017-Jun-14 07:53N 34°39' E 135°24'0 0.0
2017-Jun-14 07:30N 34°39' E 135°24'0 0.0
2017-Jun-14 06:54N 34°39' E 135°24'0 0.8
2017-Jun-14 06:30N 34°39' E 135°24'5 9.0
2017-Jun-14 05:59N 34°36' E 135°20'714.2
2017-Jun-14 05:30N 34°31' E 135°14'815.3
2017-Jun-14 05:00N 34°26' E 135°07'1015.6
2017-Jun-14 04:22N 34°18' E 134°60'514.2
2017-Jun-14 04:00N 34°13' E 134°59'610.9
2017-Jun-14 03:30N 34°07' E 134°59'612.1
2017-Jun-14 03:00N 34°01' E 134°59'  

Dump ship's entire track history